Mayo Airport
CYMA : now visible

Airfield :











YOU CAN JOIN US ON...

 
LOGIN :

Register | Disclaimer

   EN    FR    IT 

 









Legend :    VFR   Marginal VFR   IFR   Intensive IFR   Very Intensive IFR
Visi :
Ceiling :
>= 8 km
>= 3000ft
5 to 8 km
1000 to 3000 ft
1500m to 5 km
500 to 1000 ft
800 to 1500m
200 to 500 ft
< 800m
< 200 ft
Symbols :   Thunderstorms  Fog  Heavy snow  Heavy precipitations  Wind > 20 kt






- Airport Elevation : 1653 ft
- IATA code : YMA


CYMA - Mayo

CURRENT METAR :
  • 250300Z 11005KT 20SM FEW050 SCT080 BKN240 24/09 A2959 RMK CU2AC2CI3 SLP025 DENSITY ALT 3500FT

EXPIRED METARs :
  • 250200Z 09007KT 040V150 20SM SCT050 SCT120 BKN240 25/09 A2960 RMK SF4AC1CI2 SLP029 DENSITY ALT 3600FT
  • 250100Z 00000KT 20SM SCT050 BKN120 BKN230 25/08 A2961 RMK CU3AC2CI2 SLP033 DENSITY ALT 3600FT

TAF TAF CYMA
Valid from the 25 at 00:00 until the 25 at 12:00 UTC


242345Z 2500/2512 VRB03KT P6SM SCT070
TEMPO 2500/2505 BKN070
FM250500 VRB03KT P6SM BKN090
TEMPO 2505/2512 P6SM -SHRA BKN050 OVC080 RMK NXT FCST BY 250600Z
CZEG FIR / North America



MET'MAP, your aeronautical weather chart ! - Copyright ORBIFLY December 2007 - Disclaimer

ORBIFLY MET'MAP TEAM :

Programming & Development : Alexandra Zaïnal
Concept & original design : Baudouin d'Aumeries
Assistance for programming : Marc-Olivier Méhu
Technical & hardware support : Manuel Goepfert

Contact : metmap@orbifly.com




SOURCES & CREDITS :

   NOAA       Earth
Advisory